Time;durP1;ratioP1;P1;durP2;ratioP2;P2;SDS_P1;SDS_P2;PMS_P1;PMS_P2;Temp;Humidity;BMP_temperature;BMP_pressure;BME280_temperature;BME280_humidity;BME280_pressure;Samples;Min_cycle;Max_cycle;Signal;HPM_P1;HPM_P2
2021/07/25 00:00:46;;;;;;;8.77;5.63;;;17.30;99.90;;;18.22;100.00;97521.44;5055281;28;20457;-82
2021/07/25 00:03:15;;;;;;;8.10;6.57;;;17.20;99.90;;;18.22;100.00;97521.44;5053590;28;20461;-82
2021/07/25 00:05:44;;;;;;;11.63;5.83;;;17.20;99.90;;;18.26;100.00;97527.81;5049419;28;20464;-82
2021/07/25 00:08:13;;;;;;;11.40;7.07;;;17.20;99.90;;;18.30;100.00;97526.25;5053061;28;20687;-82
2021/07/25 00:10:46;;;;;;;11.60;7.60;;;17.40;99.90;;;18.31;100.00;97522.56;5052046;28;20457;-82
2021/07/25 00:13:17;;;;;;;9.50;6.43;;;17.40;99.90;;;18.30;100.00;97520.16;5052698;28;20461;-82
2021/07/25 00:15:45;;;;;;;12.77;7.10;;;17.40;99.90;;;18.30;100.00;97520.16;5062363;28;20468;-82
2021/07/25 00:18:14;;;;;;;10.00;6.70;;;17.50;99.90;;;18.28;100.00;97512.50;5049684;28;20507;-82
2021/07/25 00:20:43;;;;;;;12.00;6.47;;;17.50;99.90;;;18.30;100.00;97510.38;5055316;28;20918;-82
2021/07/25 00:23:17;;;;;;;11.53;6.40;;;17.60;99.90;;;18.35;100.00;97512.28;5050957;28;20523;-82
2021/07/25 00:25:49;;;;;;;14.30;8.90;;;17.50;99.90;;;18.34;100.00;97500.91;5048917;28;20464;-82
2021/07/25 00:28:19;;;;;;;11.50;9.00;;;17.60;99.90;;;18.30;100.00;97497.13;5050587;28;20476;-83
2021/07/25 00:30:47;;;;;;;14.13;7.30;;;17.60;99.90;;;18.34;100.00;97495.59;5056077;28;20453;-82
2021/07/25 00:33:16;;;;;;;11.30;6.27;;;17.60;99.90;;;18.39;100.00;97492.22;5051494;28;20579;-82
2021/07/25 00:35:44;;;;;;;11.43;6.80;;;17.60;99.90;;;18.36;100.00;97492.72;5049664;28;20496;-82
2021/07/25 00:38:13;;;;;;;11.83;6.97;;;17.60;99.90;;;18.31;100.00;97492.66;5053832;28;20913;-82
2021/07/25 00:40:44;;;;;;;12.67;7.20;;;17.50;99.90;;;18.24;100.00;97484.09;5052218;28;20461;-82
2021/07/25 00:43:27;;;;;;;11.33;7.67;;;17.60;99.90;;;18.21;100.00;97471.38;5053000;28;21046;-82
2021/07/25 00:45:57;;;;;;;9.53;6.50;;;17.60;99.90;;;18.14;100.00;97468.94;5053666;28;20496;-82
2021/07/25 00:48:27;;;;;;;8.67;6.07;;;17.60;99.90;;;18.16;100.00;97466.81;5053230;28;20473;-82
2021/07/25 00:50:58;;;;;;;11.60;6.63;;;17.50;99.90;;;18.22;100.00;97468.50;5052735;28;20476;-82
2021/07/25 00:53:27;;;;;;;9.07;6.70;;;17.50;99.90;;;18.23;100.00;97462.13;5057400;28;20461;-82
2021/07/25 00:55:57;;;;;;;14.63;7.47;;;17.50;99.90;;;18.20;100.00;97451.25;5055150;28;20519;-82
2021/07/25 00:58:27;;;;;;;9.60;6.77;;;17.50;99.90;;;18.15;100.00;97453.84;5048151;28;20554;-82
2021/07/25 01:00:55;;;;;;;14.00;7.50;;;17.50;99.90;;;18.06;100.00;97450.84;5053406;28;20461;-82
2021/07/25 01:03:39;;;;;;;14.13;7.50;;;17.40;99.90;;;17.90;100.00;97451.75;5051843;28;20565;-82
2021/07/25 01:06:25;;;;;;;11.20;7.80;;;17.20;99.90;;;17.97;100.00;97447.84;5050812;28;20527;-82
2021/07/25 01:09:01;;;;;;;16.70;7.53;;;17.30;99.90;;;17.98;100.00;97448.63;5052060;28;20460;-82
2021/07/25 01:11:40;;;;;;;11.27;7.30;;;17.30;99.90;;;18.01;100.00;97440.22;5059671;28;20464;-82
2021/07/25 01:14:10;;;;;;;18.00;7.97;;;17.20;99.90;;;18.00;100.00;97446.56;5054443;28;20464;-82
2021/07/25 01:16:38;;;;;;;15.50;7.60;;;17.10;99.90;;;17.94;100.00;97451.00;5052974;28;20468;-82
2021/07/25 01:19:07;;;;;;;16.20;7.60;;;17.10;99.90;;;17.94;100.00;97458.13;5055452;28;20456;-83
2021/07/25 01:21:37;;;;;;;19.30;8.00;;;17.00;99.90;;;18.03;100.00;97469.88;5053653;28;21004;-82
2021/07/25 01:24:06;;;;;;;15.07;7.23;;;17.20;99.90;;;18.08;100.00;97470.72;5054094;28;20827;-83
2021/07/25 01:26:43;;;;;;;20.47;8.40;;;17.30;99.90;;;18.09;100.00;97466.22;5056562;28;20533;-82
2021/07/25 01:29:30;;;;;;;23.40;7.83;;;17.30;99.90;;;18.10;100.00;97467.81;5056308;28;20464;-82
2021/07/25 01:32:01;;;;;;;12.43;7.53;;;17.40;99.90;;;18.11;100.00;97472.06;5056351;28;20461;-82
2021/07/25 01:34:30;;;;;;;11.73;7.10;;;17.30;99.90;;;18.12;100.00;97478.94;5052031;28;20491;-82
2021/07/25 01:37:02;;;;;;;14.30;7.03;;;17.30;99.90;;;18.13;100.00;97479.75;5048745;28;20492;-82
2021/07/25 01:39:31;;;;;;;13.27;7.00;;;17.30;99.90;;;18.10;100.00;97473.13;5055033;28;20469;-82
2021/07/25 01:41:59;;;;;;;13.60;7.53;;;17.40;99.90;;;18.08;100.00;97476.00;5051791;28;20515;-82
2021/07/25 01:44:28;;;;;;;10.90;7.73;;;17.40;99.90;;;18.12;100.00;97476.31;5055413;28;21037;-82
2021/07/25 01:46:56;;;;;;;13.43;7.67;;;17.40;99.90;;;18.13;100.00;97472.63;5052138;28;20805;-82
2021/07/25 01:49:25;;;;;;;13.80;7.30;;;17.40;99.90;;;18.15;100.00;97478.47;5057364;28;20661;-82
2021/07/25 01:51:53;;;;;;;10.17;6.17;;;17.40;99.90;;;18.06;100.00;97472.00;5050892;28;20453;-82
2021/07/25 01:54:23;;;;;;;12.53;6.80;;;17.20;99.90;;;18.05;100.00;97475.69;5049810;28;20969;-82
2021/07/25 01:56:51;;;;;;;15.03;7.77;;;17.10;99.90;;;18.09;100.00;97469.66;5047703;28;20946;-82
2021/07/25 01:59:19;;;;;;;11.27;8.27;;;17.10;99.90;;;18.16;100.00;97466.81;5054759;28;20968;-83
2021/07/25 02:01:48;;;;;;;16.77;8.27;;;17.30;99.90;;;18.16;100.00;97466.03;5052373;28;20887;-82
2021/07/25 02:04:16;;;;;;;17.50;8.27;;;17.20;99.90;;;18.13;100.00;97462.03;5051837;28;20515;-82
2021/07/25 02:06:45;;;;;;;16.87;9.13;;;17.10;99.90;;;17.96;100.00;97462.13;5053888;28;20980;-82
2021/07/25 02:09:13;;;;;;;18.57;9.03;;;17.00;99.90;;;17.98;100.00;97461.84;5060923;28;20468;-82
2021/07/25 02:11:43;;;;;;;19.47;9.80;;;17.00;99.90;;;18.01;100.00;97454.22;5059645;28;20461;-82
2021/07/25 02:14:12;;;;;;;19.00;10.40;;;17.00;99.90;;;18.05;100.00;97455.34;5062562;28;20507;-83
2021/07/25 02:16:41;;;;;;;13.50;9.00;;;17.10;99.90;;;18.10;100.00;97450.09;5057001;28;20461;-82
2021/07/25 02:19:10;;;;;;;13.40;7.77;;;17.10;99.90;;;18.15;100.00;97452.00;5058245;28;21061;-82
2021/07/25 02:21:38;;;;;;;14.90;8.70;;;17.30;99.90;;;18.18;100.00;97454.16;5065768;28;20444;-82
2021/07/25 02:24:07;;;;;;;13.30;7.87;;;17.30;99.90;;;18.21;100.00;97456.28;5063791;28;20449;-82
2021/07/25 02:26:36;;;;;;;16.77;8.00;;;17.40;99.90;;;18.17;100.00;97451.75;5060951;28;20459;-82
2021/07/25 02:29:06;;;;;;;14.57;7.53;;;17.40;99.90;;;18.18;100.00;97448.06;5052008;28;20465;-82
2021/07/25 02:31:34;;;;;;;10.10;6.80;;;17.30;99.90;;;18.18;100.00;97453.34;5054333;28;20460;-82
2021/07/25 02:34:03;;;;;;;15.17;7.53;;;17.40;99.90;;;18.15;100.00;97459.94;5055283;28;20541;-82
2021/07/25 02:36:32;;;;;;;18.57;7.60;;;17.30;99.90;;;18.14;100.00;97461.00;5060444;28;20768;-82
2021/07/25 02:39:00;;;;;;;13.03;7.67;;;17.30;99.90;;;18.14;100.00;97463.63;5049316;28;20524;-82
2021/07/25 02:41:28;;;;;;;8.47;6.10;;;17.30;99.90;;;18.14;100.00;97463.63;5054234;28;20464;-82
2021/07/25 02:43:57;;;;;;;9.73;6.63;;;17.40;99.90;;;18.11;100.00;97453.56;5056405;28;20891;-82
2021/07/25 02:46:27;;;;;;;18.30;7.60;;;17.40;99.90;;;18.13;100.00;97462.03;5056841;28;20493;-82
2021/07/25 02:48:55;;;;;;;11.57;7.80;;;17.30;99.90;;;18.12;100.00;97464.94;5056398;28;20467;-82
2021/07/25 02:51:24;;;;;;;10.50;6.57;;;17.20;99.90;;;18.14;100.00;97462.84;5060191;28;20821;-82
2021/07/25 02:53:53;;;;;;;11.70;6.83;;;17.30;99.90;;;18.16;100.00;97472.13;5061931;28;20510;-82
2021/07/25 02:56:21;;;;;;;13.37;7.77;;;17.30;99.90;;;18.16;100.00;97466.03;5060249;28;20873;-82
2021/07/25 02:58:50;;;;;;;22.60;7.60;;;17.30;99.90;;;18.16;100.00;97461.53;5061440;28;20541;-82
2021/07/25 03:01:18;;;;;;;12.80;7.47;;;17.30;99.90;;;18.17;100.00;97464.97;5059450;28;20518;-82
2021/07/25 03:03:48;;;;;;;15.87;8.53;;;17.30;99.90;;;18.15;100.00;97470.53;5060855;28;20456;-82
2021/07/25 03:06:17;;;;;;;13.20;8.20;;;17.30;99.90;;;18.20;100.00;97473.22;5056902;28;20519;-82
2021/07/25 03:08:45;;;;;;;14.77;9.20;;;17.30;99.90;;;18.22;100.00;97468.50;5060370;28;20489;-82
2021/07/25 03:11:14;;;;;;;19.40;11.33;;;17.30;99.90;;;18.24;100.00;97466.38;5053845;28;20457;-82
2021/07/25 03:13:43;;;;;;;19.20;10.90;;;17.30;99.90;;;18.26;100.00;97472.22;5058324;28;20463;-82
2021/07/25 03:16:11;;;;;;;24.07;11.93;;;17.40;99.90;;;18.30;100.00;97480.47;5053975;28;21256;-82
2021/07/25 03:18:40;;;;;;;19.07;12.43;;;17.40;99.90;;;18.28;100.00;97479.91;5059504;28;21281;-82
2021/07/25 03:21:10;;;;;;;25.53;12.13;;;17.40;99.90;;;18.27;100.00;97479.13;5060324;28;21058;-82
2021/07/25 03:23:38;;;;;;;24.07;11.10;;;17.40;99.90;;;18.22;100.00;97480.91;5064791;28;20464;-82
2021/07/25 03:26:07;;;;;;;20.97;11.67;;;17.30;99.90;;;18.21;100.00;97482.75;5051202;28;20930;-83
2021/07/25 03:28:35;;;;;;;23.40;11.17;;;17.30;99.90;;;18.21;100.00;97482.75;5057901;28;20534;-82
2021/07/25 03:31:04;;;;;;;20.40;10.87;;;17.30;99.90;;;18.20;100.00;97473.22;5051138;28;21034;-82
2021/07/25 03:33:32;;;;;;;22.23;12.23;;;17.30;99.90;;;18.09;100.00;97468.88;5048454;28;20488;-82
2021/07/25 03:36:01;;;;;;;19.60;10.33;;;17.30;99.90;;;18.07;100.00;97473.63;5055122;28;20460;-82
2021/07/25 03:38:31;;;;;;;23.00;12.57;;;17.20;99.90;;;18.00;100.00;97483.59;5057258;28;20489;-82
2021/07/25 03:41:02;;;;;;;20.10;11.23;;;17.20;99.90;;;18.02;100.00;97489.44;5053256;28;21121;-82
2021/07/25 03:43:31;;;;;;;23.17;12.00;;;17.20;99.90;;;17.96;100.00;97491.22;5052414;28;20487;-82
2021/07/25 03:46:02;;;;;;;31.43;13.77;;;17.10;99.90;;;17.92;100.00;97494.59;5055700;28;20858;-82
2021/07/25 03:48:31;;;;;;;23.20;11.87;;;17.00;99.90;;;17.92;100.00;97500.69;5052374;28;20825;-83
2021/07/25 03:50:59;;;;;;;24.87;13.20;;;17.00;99.90;;;17.91;100.00;97498.31;5053613;28;20515;-82
2021/07/25 03:53:29;;;;;;;21.57;12.50;;;17.00;99.90;;;17.89;100.00;97497.75;5056586;28;20452;-83
2021/07/25 03:55:58;;;;;;;19.47;11.20;;;16.90;99.90;;;17.89;100.00;97497.75;5051279;28;20468;-82
2021/07/25 03:58:26;;;;;;;22.83;12.80;;;16.90;99.90;;;17.90;100.00;97500.16;5056236;28;20488;-82
2021/07/25 04:00:55;;;;;;;24.07;11.83;;;16.90;99.90;;;17.83;100.00;97493.44;5052855;28;20465;-82
2021/07/25 04:03:23;;;;;;;46.17;21.27;;;16.80;99.90;;;17.84;100.00;97495.06;5051849;28;20457;-81
2021/07/25 04:05:52;;;;;;;28.50;14.57;;;16.90;99.90;;;17.85;100.00;97494.00;5055849;28;20475;-82
2021/07/25 04:08:20;;;;;;;23.50;12.97;;;16.90;99.90;;;17.85;100.00;97494.78;5049676;28;21029;-82
2021/07/25 04:10:50;;;;;;;24.87;11.97;;;16.80;99.90;;;17.77;100.00;97494.44;5055883;28;20514;-81
2021/07/25 04:13:19;;;;;;;25.27;14.80;;;16.80;99.90;;;17.82;100.00;97492.66;5054728;28;20464;-92
2021/07/25 04:15:48;;;;;;;24.60;14.40;;;16.80;99.90;;;17.81;100.00;97492.88;5061704;28;20467;-81
2021/07/25 04:18:17;;;;;;;26.87;13.33;;;16.80;99.90;;;17.77;100.00;97497.09;5065060;28;20513;-81
2021/07/25 04:20:45;;;;;;;30.67;14.00;;;16.80;99.90;;;17.77;100.00;97497.09;5064441;28;20521;-81
2021/07/25 04:23:14;;;;;;;24.17;13.33;;;16.80;99.90;;;17.84;100.00;97503.00;5055709;28;20876;-81
2021/07/25 04:25:42;;;;;;;30.10;13.90;;;16.80;99.90;;;17.86;100.00;97498.25;5052756;28;20856;-81
2021/07/25 04:28:13;;;;;;;32.70;14.03;;;16.80;99.90;;;17.79;100.00;97498.44;5054694;28;20445;-81
2021/07/25 04:30:43;;;;;;;30.43;13.07;;;16.80;99.90;;;17.75;100.00;97507.09;5052051;28;21015;-81
2021/07/25 04:33:14;;;;;;;24.97;14.80;;;16.80;99.90;;;17.79;100.00;97492.34;5062193;28;20453;-81
2021/07/25 04:35:44;;;;;;;24.97;13.33;;;16.80;99.90;;;17.85;100.00;97497.44;5069275;28;20432;-81
2021/07/25 04:38:14;;;;;;;28.43;14.00;;;16.80;99.90;;;17.89;100.00;97501.19;5069320;28;20445;-81
2021/07/25 04:40:47;;;;;;;22.20;13.23;;;16.90;99.90;;;17.88;100.00;97504.06;5065546;28;20452;-81
2021/07/25 04:43:21;;;;;;;27.23;12.30;;;16.90;99.90;;;17.92;100.00;97502.53;5055679;28;20899;-81
2021/07/25 04:45:58;;;;;;;24.17;14.47;;;16.90;99.90;;;17.91;100.00;97500.97;5063772;28;20441;-82
2021/07/25 04:48:41;;;;;;;35.60;16.10;;;16.90;99.90;;;17.91;100.00;97503.59;5058819;28;20978;-80
2021/07/25 04:51:12;;;;;;;28.40;13.43;;;16.90;99.90;;;17.97;100.00;97505.25;5051946;28;20790;-82
2021/07/25 04:53:43;;;;;;;29.27;13.50;;;17.00;99.90;;;18.00;100.00;97494.97;5055740;28;20538;-83
2021/07/25 04:56:14;;;;;;;20.80;10.27;;;17.00;99.90;;;18.01;100.00;97503.72;5054637;28;20545;-83
2021/07/25 04:58:50;;;;;;;21.10;12.13;;;17.00;99.90;;;17.97;100.00;97497.31;5052279;28;20456;-82
2021/07/25 05:01:27;;;;;;;24.43;12.17;;;17.00;99.90;;;17.99;100.00;97487.28;5053033;28;20444;-83
2021/07/25 05:03:56;;;;;;;28.40;12.03;;;17.00;99.90;;;18.03;100.00;97498.97;5051220;28;20502;-83
2021/07/25 05:06:25;;;;;;;23.37;11.43;;;17.00;99.90;;;18.08;100.00;97497.16;5056202;28;20452;-82
2021/07/25 05:08:54;;;;;;;25.93;11.40;;;17.10;99.90;;;18.11;100.00;97493.25;5055003;28;20456;-83
2021/07/25 05:11:32;;;;;;;22.77;12.47;;;17.20;99.90;;;18.15;100.00;97485.63;5051145;28;21090;-83
2021/07/25 05:14:04;;;;;;;25.43;11.00;;;17.30;99.90;;;18.15;100.00;97489.06;5055493;28;20956;-83
2021/07/25 05:16:41;;;;;;;18.17;10.73;;;17.30;99.90;;;18.18;100.00;97495.69;5053078;28;20490;-83
2021/07/25 05:19:29;;;;;;;26.80;12.73;;;17.30;99.90;;;18.20;100.00;97504.97;5051322;28;20831;-82
2021/07/25 05:22:11;;;;;;;22.57;12.50;;;17.30;99.90;;;18.23;100.00;97501.03;5053649;28;20999;-83
2021/07/25 05:24:45;;;;;;;25.17;13.30;;;17.30;99.90;;;18.23;100.00;97496.53;5058398;28;20863;-82
2021/07/25 05:27:21;;;;;;;21.83;12.30;;;17.50;99.90;;;18.22;100.00;97496.81;5051089;28;20452;-82
2021/07/25 05:29:53;;;;;;;28.63;13.50;;;17.50;99.90;;;18.28;100.00;97490.50;5051617;28;20980;-83
2021/07/25 05:32:21;;;;;;;158.23;89.03;;;17.50;99.90;;;18.33;100.00;97490.53;5051107;28;20922;-82
2021/07/25 05:34:50;;;;;;;30.80;15.70;;;17.50;99.90;;;18.36;100.00;97496.13;5049751;28;20463;-82
2021/07/25 05:37:19;;;;;;;23.27;11.57;;;17.50;99.90;;;18.39;100.00;97489.56;5050983;28;20445;-83
2021/07/25 05:39:47;;;;;;;20.47;11.27;;;17.60;99.90;;;18.44;100.00;97489.59;5057702;28;20668;-82
2021/07/25 05:42:15;;;;;;;22.70;10.93;;;17.70;99.90;;;18.45;100.00;97485.91;5052325;28;20952;-83
2021/07/25 05:44:44;;;;;;;17.53;10.17;;;17.60;99.90;;;18.48;100.00;97486.19;5055351;28;20961;-83
2021/07/25 05:47:14;;;;;;;23.53;9.47;;;17.60;99.90;;;18.54;100.00;97495.00;5054437;28;21113;-83
2021/07/25 05:49:43;;;;;;;20.20;10.30;;;17.70;99.90;;;18.62;100.00;97499.06;5050380;28;20522;-82
2021/07/25 05:52:12;;;;;;;14.97;8.60;;;17.80;99.90;;;18.66;100.00;97492.22;5051172;28;20472;-83
2021/07/25 05:54:41;;;;;;;21.80;10.80;;;17.80;99.90;;;18.69;100.00;97497.00;5056278;28;20461;-82
2021/07/25 05:57:10;;;;;;;15.60;9.37;;;17.80;99.90;;;18.71;100.00;97493.03;5060611;28;20460;-83
2021/07/25 05:59:39;;;;;;;25.47;10.17;;;17.80;99.90;;;18.69;100.00;97497.00;5056941;28;20492;-83
2021/07/25 06:02:07;;;;;;;29.00;12.93;;;17.80;99.90;;;18.72;100.00;97499.94;5053978;28;20521;-84
2021/07/25 06:04:38;;;;;;;21.17;9.93;;;17.80;99.90;;;18.75;100.00;97498.63;5053148;28;21007;-83
2021/07/25 06:07:06;;;;;;;17.80;9.50;;;17.80;99.90;;;18.82;100.00;97496.56;5054146;28;20456;-83
2021/07/25 06:09:35;;;;;;;15.70;8.97;;;17.90;99.90;;;18.88;100.00;97495.59;5049995;28;20948;-84
2021/07/25 06:12:04;;;;;;;16.40;8.50;;;18.00;99.90;;;18.86;100.00;97492.38;5052254;28;20461;-83
2021/07/25 06:14:32;;;;;;;14.57;8.57;;;18.00;99.90;;;18.92;100.00;97494.00;5056337;28;20463;-82
2021/07/25 06:17:01;;;;;;;20.93;8.70;;;18.00;99.90;;;18.92;100.00;97489.50;5054449;28;21055;-82
2021/07/25 06:19:29;;;;;;;14.87;8.80;;;18.00;99.90;;;18.97;100.00;97494.84;5053901;28;20486;-83
2021/07/25 06:21:59;;;;;;;15.07;8.60;;;18.10;99.90;;;19.02;100.00;97488.81;5049150;28;20453;-83
2021/07/25 06:24:28;;;;;;;18.83;7.67;;;18.10;99.90;;;19.07;100.00;97486.19;5055020;28;20476;-83
2021/07/25 06:26:56;;;;;;;11.87;6.73;;;18.20;99.90;;;19.12;100.00;97488.88;5052271;28;20890;-84
2021/07/25 06:29:24;;;;;;;10.13;5.93;;;18.20;99.90;;;19.12;100.00;97485.41;5055162;28;20461;-84
2021/07/25 06:31:53;;;;;;;11.77;6.57;;;18.20;99.90;;;19.16;100.00;97486.50;5055184;28;20881;-83
2021/07/25 06:34:21;;;;;;;66.83;42.13;;;18.30;99.90;;;19.18;100.00;97485.19;5052598;28;20538;-86
2021/07/25 06:36:50;;;;;;;12.53;6.83;;;18.30;99.90;;;19.22;100.00;97485.50;5052216;28;20461;-82
2021/07/25 06:39:20;;;;;;;8.73;5.73;;;18.40;99.90;;;19.21;100.00;97484.69;5057680;28;20795;-82
2021/07/25 06:41:48;;;;;;;11.47;5.80;;;18.40;99.90;;;19.21;100.00;97483.88;5061911;28;20495;-81
2021/07/25 06:44:17;;;;;;;10.03;5.63;;;18.30;99.90;;;19.21;100.00;97483.88;5051582;28;20495;-81
2021/07/25 06:46:45;;;;;;;10.60;5.80;;;18.30;99.90;;;19.22;100.00;97490.78;5049306;28;20481;-83
2021/07/25 06:49:14;;;;;;;7.80;5.70;;;18.30;99.90;;;19.20;100.00;97488.38;5054219;28;20891;-82
2021/07/25 06:51:43;;;;;;;11.23;5.60;;;18.30;99.90;;;19.27;100.00;97482.84;5051913;28;20548;-82
2021/07/25 06:54:11;;;;;;;8.53;5.27;;;18.40;99.90;;;19.28;100.00;97485.25;5059233;28;20465;-83
2021/07/25 06:56:41;;;;;;;19.23;5.10;;;18.50;99.90;;;19.30;100.00;97482.38;5062807;28;20464;-83
2021/07/25 06:59:09;;;;;;;10.07;4.87;;;18.50;99.90;;;19.30;100.00;97492.97;5063591;28;20468;-83
2021/07/25 07:01:38;;;;;;;463.97;299.40;;;18.50;99.90;;;19.36;100.00;97492.75;5054561;28;20510;-82
2021/07/25 07:04:07;;;;;;;10.67;5.67;;;18.50;99.90;;;19.34;100.00;97486.06;5053410;28;20511;-83
2021/07/25 07:06:35;;;;;;;7.40;4.97;;;18.50;99.90;;;19.39;100.00;97494.88;5065778;28;20444;-83
2021/07/25 07:09:04;;;;;;;6.47;5.17;;;18.60;99.90;;;19.42;100.00;97498.88;5058603;28;20850;-82
2021/07/25 07:11:32;;;;;;;14.33;5.23;;;18.60;99.90;;;19.48;100.00;97501.31;5065416;28;20801;-83
2021/07/25 07:14:02;;;;;;;7.00;4.50;;;18.70;99.90;;;19.54;100.00;97500.28;5056747;28;20441;-83
2021/07/25 07:16:32;;;;;;;29.70;22.73;;;18.80;99.90;;;19.64;100.00;97506.72;5052861;28;20460;-87
2021/07/25 07:19:00;;;;;;;24.23;15.30;;;19.00;99.90;;;19.68;100.00;97513.09;5050684;28;20469;-83
2021/07/25 07:21:29;;;;;;;10.90;5.83;;;19.00;99.90;;;19.71;100.00;97515.22;5060313;28;20545;-83
2021/07/25 07:23:57;;;;;;;7.30;5.27;;;19.00;99.90;;;19.74;100.00;97512.06;5054907;28;20464;-82
2021/07/25 07:26:26;;;;;;;5.93;3.90;;;19.00;99.90;;;19.81;100.00;97513.44;5049910;28;20875;-82
2021/07/25 07:28:55;;;;;;;6.50;4.63;;;19.20;99.90;;;19.81;100.00;97515.28;5058512;28;20460;-82
2021/07/25 07:31:25;;;;;;;10.23;7.37;;;19.20;99.90;;;19.81;100.00;97516.09;5053228;28;20461;-86
2021/07/25 07:33:54;;;;;;;26.27;14.60;;;19.10;99.90;;;19.86;100.00;97510.78;5056211;28;20548;-83
2021/07/25 07:36:22;;;;;;;7.63;5.30;;;19.20;99.90;;;19.90;100.00;97513.72;5055980;28;20457;-82
2021/07/25 07:38:51;;;;;;;7.20;4.50;;;19.20;99.90;;;19.92;100.00;97508.97;5052065;28;20453;-82
2021/07/25 07:41:19;;;;;;;11.20;4.80;;;19.30;99.90;;;19.97;100.00;97509.75;5062756;28;21069;-82
2021/07/25 07:43:48;;;;;;;7.00;5.17;;;19.30;99.90;;;19.99;100.00;97518.25;5056103;28;20445;-83
2021/07/25 07:46:16;;;;;;;8.43;5.00;;;19.30;99.90;;;20.05;100.00;97519.09;5055020;28;20449;-82
2021/07/25 07:48:46;;;;;;;6.33;3.87;;;19.40;99.90;;;20.09;100.00;97515.66;5061085;28;20452;-82
2021/07/25 07:51:14;;;;;;;9.37;4.40;;;19.40;99.90;;;20.12;100.00;97517.00;5054776;28;20441;-82
2021/07/25 07:53:43;;;;;;;6.53;4.87;;;19.40;99.90;;;20.17;100.00;97510.88;5061447;28;21174;-82
2021/07/25 07:56:11;;;;;;;8.73;5.67;;;19.40;99.90;;;20.21;100.00;97518.06;5060034;28;20448;-82
2021/07/25 07:58:40;;;;;;;8.03;4.90;;;19.50;99.90;;;20.28;100.00;97513.34;5056955;28;20934;-82
2021/07/25 08:01:09;;;;;;;8.63;4.50;;;19.60;99.90;;;20.31;100.00;97514.66;5059227;28;20545;-83
2021/07/25 08:03:37;;;;;;;7.67;4.80;;;19.60;99.90;;;20.35;100.00;97515.75;5055573;28;20445;-83
2021/07/25 08:06:07;;;;;;;15.10;5.97;;;19.70;99.90;;;20.33;100.00;97517.88;5060131;28;20481;-82
2021/07/25 08:08:36;;;;;;;10.90;5.40;;;19.60;99.90;;;20.39;100.00;97512.31;5059412;28;20461;-82
2021/07/25 08:11:04;;;;;;;11.80;5.63;;;19.80;99.90;;;20.45;100.00;97511.25;5067165;28;20449;-82
2021/07/25 08:13:33;;;;;;;8.37;6.37;;;19.90;99.90;;;20.48;100.00;97516.03;5054580;28;20456;-83
2021/07/25 08:16:01;;;;;;;9.07;5.63;;;19.80;99.90;;;20.42;100.00;97518.94;5062941;28;20454;-82
2021/07/25 08:18:30;;;;;;;9.53;5.93;;;19.70;99.90;;;20.45;100.00;97526.38;5061779;28;20459;-82
2021/07/25 08:20:59;;;;;;;11.03;6.30;;;19.70;99.90;;;20.52;100.00;97521.63;5068055;28;20862;-82
2021/07/25 08:23:28;;;;;;;9.80;6.57;;;19.80;99.90;;;20.58;100.00;97510.72;5056114;28;20705;-82
2021/07/25 08:25:57;;;;;;;11.53;7.13;;;19.90;99.90;;;20.63;100.00;97525.91;5057130;28;20445;-82
2021/07/25 08:28:26;;;;;;;15.33;7.90;;;19.90;99.90;;;20.63;100.00;97520.59;5057575;28;20442;-82
2021/07/25 08:30:55;;;;;;;10.87;7.57;;;19.90;99.90;;;20.67;100.00;97520.84;5060907;28;20472;-82
2021/07/25 08:33:23;;;;;;;11.70;7.20;;;19.90;99.90;;;20.69;100.00;97514.19;5068356;28;20837;-82
2021/07/25 08:35:52;;;;;;;12.70;7.87;;;19.90;99.90;;;20.70;100.00;97505.19;5055622;28;20449;-82
2021/07/25 08:38:21;;;;;;;14.73;7.97;;;19.90;99.90;;;20.75;100.00;97513.16;5058560;28;20444;-82
2021/07/25 08:41:11;;;;;;;20.13;8.40;;;20.00;99.90;;;20.81;100.00;97508.63;5064589;28;20491;-82
2021/07/25 08:43:43;;;;;;;14.20;8.57;;;20.00;99.90;;;20.86;100.00;97511.31;5056032;28;20437;-82
2021/07/25 08:46:17;;;;;;;11.00;7.77;;;20.10;99.90;;;20.87;100.00;97504.91;5057521;28;20489;-82
2021/07/25 08:48:48;;;;;;;10.27;7.50;;;20.00;99.90;;;20.91;100.00;97503.31;5056399;28;20503;-82
2021/07/25 08:51:19;;;;;;;11.67;6.63;;;20.10;99.90;;;20.97;100.00;97504.91;5058236;28;20941;-82
2021/07/25 08:54:06;;;;;;;10.50;7.30;;;20.20;99.90;;;21.02;100.00;97504.91;5057285;28;20970;-82
2021/07/25 08:56:37;;;;;;;9.93;7.03;;;20.30;99.90;;;21.07;100.00;97508.34;5056443;28;20448;-82
2021/07/25 08:59:08;;;;;;;11.47;7.67;;;20.30;99.90;;;21.13;100.00;97516.38;5056990;28;20441;-82
2021/07/25 09:01:40;;;;;;;11.03;7.20;;;20.40;99.90;;;21.17;100.00;97504.94;5057908;28;20493;-82
2021/07/25 09:04:09;;;;;;;10.53;7.20;;;20.40;99.90;;;21.24;100.00;97515.31;5067711;28;20452;-82
2021/07/25 09:06:48;;;;;;;14.43;7.50;;;20.50;99.90;;;21.28;100.00;97519.81;5056477;28;20445;-82
2021/07/25 09:09:20;;;;;;;14.03;7.97;;;20.60;99.90;;;21.33;100.00;97517.16;5058849;28;20505;-82
2021/07/25 09:11:51;;;;;;;11.10;7.10;;;20.60;99.90;;;21.36;100.00;97513.94;5056259;28;20953;-82
2021/07/25 09:14:20;;;;;;;9.80;6.50;;;20.60;99.90;;;21.40;100.00;97508.88;5058447;28;20467;-81
2021/07/25 09:16:48;;;;;;;14.10;6.67;;;20.70;99.90;;;21.42;100.00;97515.53;5053971;28;20825;-82
2021/07/25 09:19:17;;;;;;;10.90;6.30;;;20.70;99.90;;;21.40;100.00;97514.22;5055644;28;20491;-82
2021/07/25 09:21:47;;;;;;;8.13;5.80;;;20.60;99.90;;;21.47;100.00;97504.88;5055431;28;20513;-81
2021/07/25 09:24:19;;;;;;;19.20;7.00;;;20.80;99.90;;;21.56;100.00;97511.25;5056757;28;20498;-82
2021/07/25 09:26:58;;;;;;;14.80;6.67;;;20.90;99.90;;;21.64;100.00;97512.56;5055784;28;20466;-81
2021/07/25 09:29:29;;;;;;;7.90;6.03;;;21.00;99.90;;;21.70;100.00;97519.44;5055965;28;20495;-83
2021/07/25 09:32:12;;;;;;;11.07;6.43;;;21.10;99.90;;;21.78;100.00;97504.78;5058584;28;20448;-82
2021/07/25 09:34:42;;;;;;;10.67;6.10;;;21.10;99.90;;;21.88;100.00;97507.41;5054497;28;20460;-83
2021/07/25 09:37:15;;;;;;;9.57;5.93;;;21.20;99.90;;;21.97;100.00;97506.59;5056375;28;20449;-82
2021/07/25 09:39:46;;;;;;;12.00;7.00;;;21.40;99.90;;;22.09;100.00;97508.94;5055415;28;20452;-83
2021/07/25 09:42:26;;;;;;;9.00;5.03;;;21.50;99.90;;;22.20;100.00;97507.84;5051943;28;20962;-83
2021/07/25 09:44:57;;;;;;;9.33;5.43;;;21.60;99.90;;;22.31;100.00;97503.25;5060670;28;20936;-83
2021/07/25 09:47:32;;;;;;;16.93;6.03;;;21.70;99.90;;;22.40;100.00;97501.59;5068671;28;20480;-83
2021/07/25 09:50:05;;;;;;;12.87;6.30;;;21.70;99.90;;;22.43;100.00;97503.69;5065390;28;20459;-82
2021/07/25 09:52:36;;;;;;;8.50;5.50;;;21.70;99.90;;;22.46;100.00;97503.94;5068547;28;21029;-82
2021/07/25 09:55:09;;;;;;;7.10;5.30;;;21.80;99.90;;;22.54;100.00;97516.69;5058816;28;20493;-83
2021/07/25 09:57:39;;;;;;;4.77;3.93;;;21.80;99.90;;;22.57;100.00;97510.00;5057023;28;20882;-83
2021/07/25 10:00:11;;;;;;;7.03;4.67;;;21.80;99.90;;;22.60;100.00;97509.44;5057129;28;20475;-83
2021/07/25 10:02:43;;;;;;;10.50;5.60;;;21.80;99.90;;;22.70;99.66;97512.06;5057726;28;20532;-83
2021/07/25 10:05:14;;;;;;;8.77;5.40;;;22.00;99.90;;;22.70;100.00;97512.06;5066228;28;20460;-84
2021/07/25 10:07:45;;;;;;;10.60;6.10;;;21.90;99.90;;;22.76;100.00;97502.16;5059587;28;20445;-84
2021/07/25 10:10:16;;;;;;;10.90;5.97;;;22.00;99.90;;;22.86;100.00;97502.91;5054862;28;20449;-83
2021/07/25 10:12:47;;;;;;;12.80;5.87;;;22.20;99.90;;;22.93;100.00;97507.91;5065695;28;20947;-83
2021/07/25 10:15:20;;;;;;;9.53;7.13;;;22.20;99.90;;;23.01;100.00;97499.31;5060935;28;20498;-84
2021/07/25 10:17:49;;;;;;;21.83;5.50;;;22.40;99.90;;;23.08;100.00;97503.22;5057652;28;20445;-84